createdAt,value
2022-08-23T00:02:26.235Z,97939.78
2022-08-23T00:05:08.033Z,97948.78
2022-08-23T00:07:42.034Z,97938.72
2022-08-23T00:10:11.335Z,97946.78
2022-08-23T00:12:38.056Z,97936.56
2022-08-23T00:15:05.454Z,97946.78
2022-08-23T00:17:34.294Z,97945.81
2022-08-23T00:20:06.367Z,97948.22
2022-08-23T00:22:33.339Z,97956.06
2022-08-23T00:24:59.790Z,97950.09
2022-08-23T00:27:26.900Z,97946.63
2022-08-23T00:29:55.253Z,97951.84
2022-08-23T00:32:28.905Z,97949.69
2022-08-23T00:34:56.422Z,97910.91
2022-08-23T00:37:24.611Z,97946.19
2022-08-23T00:39:51.924Z,97940.47
2022-08-23T00:43:14.943Z,97941.41
2022-08-23T00:46:21.098Z,97946.00
2022-08-23T00:48:47.893Z,97948.81
2022-08-23T00:51:22.466Z,97939.66
2022-08-23T00:53:53.561Z,97935.88
2022-08-23T00:56:22.984Z,97949.50
2022-08-23T00:58:50.204Z,97949.31
2022-08-23T01:01:18.357Z,97943.88
2022-08-23T01:03:59.094Z,97954.38
2022-08-23T01:06:58.350Z,97953.22
2022-08-23T01:09:25.799Z,97943.31
2022-08-23T01:12:07.530Z,97945.78
2022-08-23T01:15:01.566Z,97950.09
2022-08-23T01:17:38.317Z,97944.72
2022-08-23T01:20:12.945Z,97953.41
2022-08-23T01:22:55.189Z,97946.16
2022-08-23T01:25:24.533Z,97940.47
2022-08-23T01:27:51.976Z,97951.22
2022-08-23T01:30:23.318Z,97948.56
2022-08-23T01:32:56.353Z,97950.44
2022-08-23T01:35:30.976Z,97932.69
2022-08-23T01:37:57.540Z,97957.16
2022-08-23T01:40:24.331Z,97954.19
2022-08-23T01:42:51.585Z,97950.72
2022-08-23T01:45:18.134Z,97957.47
2022-08-23T01:47:44.706Z,97954.47
2022-08-23T01:50:13.126Z,97958.78
2022-08-23T01:52:47.174Z,97953.91
2022-08-23T01:55:16.614Z,97955.59
2022-08-23T01:57:48.348Z,97958.03
2022-08-23T02:00:19.804Z,97952.66
2022-08-23T02:02:47.123Z,97963.72
2022-08-23T02:05:14.434Z,97959.94
2022-08-23T02:07:46.982Z,97962.13
2022-08-23T02:10:14.650Z,97965.38
2022-08-23T02:12:41.351Z,97950.28
2022-08-23T02:15:13.814Z,97969.13
2022-08-23T02:17:44.352Z,97962.88
2022-08-23T02:20:11.945Z,97966.34
2022-08-23T02:22:39.465Z,97961.00
2022-08-23T02:25:07.197Z,97963.66
2022-08-23T02:27:33.736Z,97969.56
2022-08-23T02:30:02.136Z,97974.97
2022-08-23T02:32:29.706Z,97975.56
2022-08-23T02:35:04.863Z,97979.31
2022-08-23T02:37:34.209Z,97982.22
2022-08-23T02:40:00.989Z,97982.00
2022-08-23T02:42:28.611Z,97982.22
2022-08-23T02:44:55.477Z,97957.97
2022-08-23T02:47:22.202Z,97985.66
2022-08-23T02:50:06.186Z,97989.41
2022-08-23T02:52:33.710Z,97995.88
2022-08-23T02:55:00.501Z,97987.50
2022-08-23T02:57:27.795Z,97994.75
2022-08-23T02:59:59.153Z,97979.91
2022-08-23T03:02:25.707Z,97998.38
2022-08-23T03:04:52.355Z,98000.91
2022-08-23T03:07:19.270Z,97997.66
2022-08-23T03:09:46.210Z,98008.94
2022-08-23T03:12:12.964Z,97989.50
2022-08-23T03:14:43.865Z,98016.00
2022-08-23T03:17:11.206Z,98011.00
2022-08-23T03:19:37.988Z,98010.94
2022-08-23T03:22:04.648Z,98007.88
2022-08-23T03:24:31.284Z,98003.63
2022-08-23T03:26:59.585Z,98012.00
2022-08-23T03:29:26.159Z,98017.47
2022-08-23T03:31:59.636Z,98007.84
2022-08-23T03:34:27.461Z,98013.97
2022-08-23T03:36:54.280Z,98023.31
2022-08-23T03:39:20.742Z,98012.63
2022-08-23T03:41:48.216Z,98010.53
2022-08-23T03:44:14.970Z,98019.63
2022-08-23T03:46:43.893Z,98015.31
2022-08-23T03:49:10.536Z,98016.22
2022-08-23T03:51:58.297Z,98008.03
2022-08-23T03:54:24.886Z,98021.72
2022-08-23T03:56:59.678Z,98029.88
2022-08-23T03:59:30.121Z,98024.06
2022-08-23T04:01:57.133Z,98018.88
2022-08-23T04:04:23.704Z,98012.22
2022-08-23T04:07:20.813Z,98033.78
2022-08-23T04:09:54.829Z,98042.13
2022-08-23T04:12:23.353Z,98043.63
2022-08-23T04:14:49.802Z,98043.56
2022-08-23T04:17:17.794Z,98044.53
2022-08-23T04:19:44.391Z,98044.03
2022-08-23T04:22:13.657Z,98042.66
2022-08-23T04:24:41.955Z,98029.53
2022-08-23T04:27:08.574Z,98057.00
2022-08-23T04:29:35.164Z,98050.16
2022-08-23T04:32:05.245Z,98047.41
2022-08-23T04:34:34.855Z,98058.81
2022-08-23T04:37:02.102Z,98055.66
2022-08-23T04:39:29.326Z,98060.03
2022-08-23T04:42:15.898Z,98057.91
2022-08-23T04:44:43.636Z,98024.69
2022-08-23T04:47:10.174Z,98062.84
2022-08-23T04:49:36.732Z,98075.25
2022-08-23T04:52:03.658Z,98075.56
2022-08-23T04:54:31.489Z,98072.41
2022-08-23T04:57:18.670Z,98076.47
2022-08-23T04:59:45.612Z,98080.00
2022-08-23T05:02:12.469Z,98082.28
2022-08-23T05:04:39.152Z,98087.88
2022-08-23T05:07:05.645Z,98093.06
2022-08-23T05:09:33.297Z,98095.31
2022-08-23T05:11:59.732Z,98095.88
2022-08-23T05:14:27.997Z,98100.41
2022-08-23T05:16:54.902Z,98105.59
2022-08-23T05:19:24.797Z,98100.84
2022-08-23T05:21:56.359Z,98109.03
2022-08-23T05:24:27.990Z,98109.28
2022-08-23T05:26:54.427Z,98109.13
2022-08-23T05:29:21.465Z,98114.00
2022-08-23T05:31:50.362Z,98111.97
2022-08-23T05:34:22.444Z,98116.13
2022-08-23T05:36:56.482Z,98120.28
2022-08-23T05:39:36.448Z,98115.28
2022-08-23T05:42:11.278Z,98117.34
2022-08-23T05:44:38.255Z,98118.44
2022-08-23T05:47:10.642Z,98122.16
2022-08-23T05:49:45.007Z,98122.38
2022-08-23T05:52:13.572Z,98127.59
2022-08-23T05:54:42.627Z,98130.25
2022-08-23T05:57:24.514Z,98133.66
2022-08-23T05:59:50.994Z,98132.97
2022-08-23T06:02:17.432Z,98142.25
2022-08-23T06:04:43.949Z,98137.63
2022-08-23T06:07:11.661Z,98144.94
2022-08-23T06:09:39.060Z,98148.84
2022-08-23T06:12:05.724Z,98147.38
2022-08-23T06:14:32.323Z,98144.78
2022-08-23T06:16:58.980Z,98134.47
2022-08-23T06:19:27.254Z,98149.44
2022-08-23T06:22:12.172Z,98151.13
2022-08-23T06:24:41.667Z,98155.81
2022-08-23T06:27:13.873Z,98149.13
2022-08-23T06:29:41.148Z,98153.25
2022-08-23T06:32:26.147Z,98150.91
2022-08-23T06:35:38.223Z,98157.44
2022-08-23T06:38:09.552Z,98153.31
2022-08-23T06:40:49.063Z,98156.13
2022-08-23T06:43:24.320Z,98151.66
2022-08-23T06:46:08.966Z,98157.84
2022-08-23T06:48:35.397Z,98152.81
2022-08-23T06:51:02.002Z,98149.25
2022-08-23T06:54:03.234Z,98147.66
2022-08-23T06:57:01.071Z,98153.66
2022-08-23T06:59:31.189Z,98153.88
2022-08-23T07:02:21.209Z,98155.69
2022-08-23T07:05:07.947Z,98161.25
2022-08-23T07:07:44.295Z,98154.84
2022-08-23T07:10:14.318Z,98162.03
2022-08-23T07:12:42.729Z,98155.06
2022-08-23T07:15:11.558Z,98163.84
2022-08-23T07:17:38.656Z,98157.09
2022-08-23T07:20:05.796Z,98162.56
2022-08-23T07:22:34.904Z,98166.47
2022-08-23T07:25:03.861Z,98160.81
2022-08-23T07:27:31.446Z,98161.16
2022-08-23T07:30:02.564Z,98165.81
2022-08-23T07:32:30.048Z,98162.84
2022-08-23T07:34:58.301Z,98143.75
2022-08-23T07:37:26.320Z,98160.63
2022-08-23T07:39:52.906Z,98158.66
2022-08-23T07:42:25.322Z,98155.47
2022-08-23T07:44:54.872Z,98156.03
2022-08-23T07:47:24.208Z,98150.41
2022-08-23T07:49:54.282Z,98152.88
2022-08-23T07:52:20.853Z,98152.31
2022-08-23T07:54:48.546Z,98157.13
2022-08-23T07:57:45.506Z,98160.44
2022-08-23T08:00:30.348Z,98158.56
2022-08-23T08:03:25.540Z,98161.34
2022-08-23T08:06:11.689Z,98165.91
2022-08-23T08:08:40.975Z,98169.09
2022-08-23T08:11:09.270Z,98169.97
2022-08-23T08:13:38.508Z,98175.59
2022-08-23T08:16:06.551Z,98175.09
2022-08-23T08:18:35.962Z,98162.91
2022-08-23T08:21:21.294Z,98148.97
2022-08-23T08:23:58.797Z,98164.56
2022-08-23T08:26:36.980Z,98175.97
2022-08-23T08:29:04.548Z,98183.47
2022-08-23T08:31:34.549Z,98182.53
2022-08-23T08:34:01.209Z,98199.00
2022-08-23T08:36:49.426Z,98195.00
2022-08-23T08:39:22.176Z,98181.06
2022-08-23T08:42:20.556Z,98183.72
2022-08-23T08:44:55.131Z,98178.91
2022-08-23T08:47:54.044Z,98180.16
2022-08-23T08:50:36.905Z,98179.34
2022-08-23T08:53:22.257Z,98182.16
2022-08-23T08:56:32.909Z,98182.28
2022-08-23T08:59:16.099Z,98184.47
2022-08-23T09:01:42.677Z,98173.13
2022-08-23T09:04:13.672Z,98175.16
2022-08-23T09:07:07.840Z,98170.16
2022-08-23T09:09:50.027Z,98169.34
2022-08-23T09:12:25.730Z,98172.78
2022-08-23T09:15:19.773Z,98173.22
2022-08-23T09:17:55.889Z,98168.41
2022-08-23T09:20:32.994Z,98161.72
2022-08-23T09:23:31.938Z,98174.50
2022-08-23T09:26:03.858Z,98173.63
2022-08-23T09:28:36.960Z,98172.31
2022-08-23T09:31:08.325Z,98169.03
2022-08-23T09:33:42.052Z,98160.94
2022-08-23T09:36:26.506Z,98162.28
2022-08-23T09:39:23.160Z,98164.47
2022-08-23T09:42:00.713Z,98165.22
2022-08-23T09:44:45.386Z,98164.34
2022-08-23T09:47:17.096Z,98163.13
2022-08-23T09:49:52.406Z,98160.19
2022-08-23T09:52:37.586Z,98156.72
2022-08-23T09:55:10.664Z,98154.25
2022-08-23T09:57:48.022Z,98151.00
2022-08-23T10:00:17.349Z,98156.50
2022-08-23T10:02:49.157Z,98138.47
2022-08-23T10:05:30.529Z,98146.59
2022-08-23T10:08:02.708Z,98148.75
2022-08-23T10:10:37.302Z,98137.88
2022-08-23T10:13:06.248Z,98150.63
2022-08-23T10:15:45.263Z,98123.31
2022-08-23T10:18:29.747Z,98138.91
2022-08-23T10:21:21.152Z,98150.59
2022-08-23T10:24:19.687Z,98137.13
2022-08-23T10:26:52.306Z,98137.03
2022-08-23T10:29:40.979Z,98141.75
2022-08-23T10:32:25.559Z,98137.94
2022-08-23T10:35:17.776Z,98106.94
2022-08-23T10:38:03.606Z,98143.50
2022-08-23T10:40:45.876Z,98134.97
2022-08-23T10:43:26.045Z,98140.69
2022-08-23T10:46:00.232Z,98132.97
2022-08-23T10:48:54.787Z,98133.47
2022-08-23T10:51:31.886Z,98125.81
2022-08-23T10:54:07.552Z,98124.53
2022-08-23T10:56:35.324Z,98121.78
2022-08-23T10:59:26.192Z,98121.59
2022-08-23T11:02:15.399Z,98121.28
2022-08-23T11:05:00.944Z,98116.03
2022-08-23T11:07:38.967Z,98120.28
2022-08-23T11:10:26.285Z,98114.13
2022-08-23T11:13:00.599Z,98113.25
2022-08-23T11:15:41.385Z,98114.69
2022-08-23T11:18:34.850Z,98119.41
2022-08-23T11:21:05.466Z,98117.78
2022-08-23T11:23:45.148Z,98120.41
2022-08-23T11:26:39.777Z,98116.25
2022-08-23T11:29:07.142Z,98114.88
2022-08-23T11:31:50.374Z,98118.72
2022-08-23T11:34:25.830Z,98119.88
2022-08-23T11:37:18.970Z,98114.56
2022-08-23T11:39:59.739Z,98112.63
2022-08-23T11:42:38.144Z,98122.19
2022-08-23T11:45:27.358Z,98117.16
2022-08-23T11:48:37.186Z,98108.09
2022-08-23T11:51:17.972Z,98106.09
2022-08-23T11:53:54.158Z,98119.72
2022-08-23T11:56:26.650Z,98113.41
2022-08-23T11:59:15.439Z,98117.91
2022-08-23T12:01:44.798Z,98097.41
2022-08-23T12:04:26.396Z,98107.44
2022-08-23T12:07:01.640Z,98106.72
2022-08-23T12:09:28.024Z,98112.13
2022-08-23T12:11:57.631Z,98100.06
2022-08-23T12:14:42.366Z,98103.31
2022-08-23T12:17:11.831Z,98107.47
2022-08-23T12:19:42.013Z,98095.91
2022-08-23T12:22:21.629Z,98092.00
2022-08-23T12:24:54.733Z,98093.06
2022-08-23T12:27:41.967Z,98096.34
2022-08-23T12:30:20.627Z,98092.94
2022-08-23T12:32:47.209Z,98089.69
2022-08-23T12:35:38.461Z,98090.66
2022-08-23T12:38:17.796Z,98083.66
2022-08-23T12:40:50.620Z,98088.09
2022-08-23T12:43:22.829Z,98084.69
2022-08-23T12:45:55.698Z,98089.25
2022-08-23T12:48:25.697Z,98082.03
2022-08-23T12:50:58.855Z,98078.72
2022-08-23T12:53:33.790Z,98086.75
2022-08-23T12:56:22.781Z,98091.41
2022-08-23T12:59:03.322Z,98090.47
2022-08-23T13:01:34.422Z,98088.22
2022-08-23T13:04:14.234Z,98075.59
2022-08-23T13:06:46.742Z,98064.47
2022-08-23T13:09:38.247Z,98077.47
2022-08-23T13:12:06.940Z,98082.81
2022-08-23T13:14:48.516Z,98078.38
2022-08-23T13:17:27.177Z,98073.25
2022-08-23T13:20:22.885Z,98072.84
2022-08-23T13:22:56.765Z,98075.53
2022-08-23T13:25:36.467Z,98077.25
2022-08-23T13:28:26.211Z,98071.41
2022-08-23T13:31:05.878Z,98076.69
2022-08-23T13:33:32.485Z,98083.47
2022-08-23T13:36:17.260Z,98077.91
2022-08-23T13:38:44.798Z,98071.03
2022-08-23T13:41:39.015Z,98068.91
2022-08-23T13:44:08.249Z,98072.88
2022-08-23T13:46:43.302Z,98066.63
2022-08-23T13:49:28.376Z,98072.38
2022-08-23T13:52:24.607Z,98079.53
2022-08-23T13:54:51.274Z,98074.34
2022-08-23T13:57:21.081Z,98064.41
2022-08-23T13:59:53.429Z,98071.25
2022-08-23T14:02:22.705Z,98069.94
2022-08-23T14:04:49.349Z,98072.38
2022-08-23T14:07:16.053Z,98080.59
2022-08-23T14:09:42.615Z,98076.41
2022-08-23T14:12:14.385Z,98069.50
2022-08-23T14:14:41.954Z,98080.88
2022-08-23T14:17:12.853Z,98077.78
2022-08-23T14:22:33.270Z,98070.59
2022-08-23T14:24:59.710Z,98080.03
2022-08-23T14:27:26.127Z,98076.53
2022-08-23T14:29:52.585Z,98070.47
2022-08-23T14:32:19.044Z,98072.50
2022-08-23T14:34:45.435Z,98063.63
2022-08-23T14:39:58.648Z,98073.34
2022-08-23T14:42:25.319Z,98072.34
2022-08-23T14:44:51.821Z,98071.59
2022-08-23T14:47:19.123Z,98075.09
2022-08-23T14:49:46.448Z,98070.88
2022-08-23T14:52:14.927Z,98074.59
2022-08-23T14:54:42.006Z,98074.44
2022-08-23T14:57:09.772Z,98065.66
2022-08-23T14:59:36.301Z,98058.13
2022-08-23T15:02:06.529Z,98066.44
2022-08-23T15:04:34.578Z,98059.56
2022-08-23T15:07:18.908Z,98063.38
2022-08-23T15:09:50.572Z,98061.66
2022-08-23T15:15:12.534Z,98063.06
2022-08-23T15:17:47.522Z,98066.25
2022-08-23T15:20:14.193Z,98068.22
2022-08-23T15:22:44.947Z,98065.81
2022-08-23T15:25:13.256Z,98067.94
2022-08-23T15:27:39.815Z,98072.22
2022-08-23T15:30:07.405Z,98058.25
2022-08-23T15:32:33.842Z,98064.94
2022-08-23T15:35:01.509Z,98063.34
2022-08-23T15:37:28.754Z,98063.34
2022-08-23T15:39:55.293Z,98056.97
2022-08-23T15:42:21.727Z,98070.41
2022-08-23T15:44:49.253Z,98054.72
2022-08-23T15:47:26.029Z,98061.47
2022-08-23T15:49:52.998Z,98063.66
2022-08-23T15:52:19.953Z,98069.59
2022-08-23T15:54:47.212Z,98063.19
2022-08-23T15:57:21.526Z,98062.03
2022-08-23T15:59:47.996Z,98063.56
2022-08-23T16:02:15.149Z,98067.53
2022-08-23T16:04:42.001Z,98065.59
2022-08-23T16:07:12.818Z,98065.88
2022-08-23T16:09:39.261Z,98061.34
2022-08-23T16:12:06.406Z,98062.81
2022-08-23T16:14:33.130Z,98063.75
2022-08-23T16:17:00.391Z,98061.44
2022-08-23T16:19:27.943Z,98051.84
2022-08-23T16:21:54.996Z,98061.63
2022-08-23T16:24:24.664Z,98061.38
2022-08-23T16:26:52.079Z,98057.13
2022-08-23T16:29:20.175Z,98061.72
2022-08-23T16:31:47.286Z,98053.41
2022-08-23T16:34:17.108Z,98063.50
2022-08-23T16:36:46.476Z,98059.50
2022-08-23T16:39:16.351Z,98066.34
2022-08-23T16:41:42.818Z,98059.19
2022-08-23T16:44:09.292Z,98050.81
2022-08-23T16:46:36.688Z,98064.50
2022-08-23T16:49:03.397Z,98061.69
2022-08-23T16:51:29.876Z,98066.63
2022-08-23T16:54:01.584Z,98060.06
2022-08-23T16:56:33.896Z,98063.72
2022-08-23T16:59:01.308Z,98073.81
2022-08-23T17:01:28.605Z,98063.31
2022-08-23T17:03:55.269Z,98068.31
2022-08-23T17:06:21.890Z,98069.56
2022-08-23T17:08:48.394Z,98072.59
2022-08-23T17:11:18.433Z,98073.38
2022-08-23T17:13:45.571Z,98069.38
2022-08-23T17:16:12.666Z,98070.97
2022-08-23T17:18:39.449Z,98068.91
2022-08-23T17:21:06.738Z,98068.72
2022-08-23T17:23:33.514Z,98078.31
2022-08-23T17:26:05.850Z,98070.53
2022-08-23T17:28:32.777Z,98073.44
2022-08-23T17:30:59.409Z,98085.38
2022-08-23T17:33:25.879Z,98083.53
2022-08-23T17:35:52.328Z,98085.84
2022-08-23T17:38:20.175Z,98083.66
2022-08-23T17:40:46.900Z,98086.97
2022-08-23T17:43:13.785Z,98095.06
2022-08-23T17:45:44.232Z,98094.28
2022-08-23T17:48:13.101Z,98096.78
2022-08-23T17:50:41.982Z,98097.06
2022-08-23T17:53:08.408Z,98090.31
2022-08-23T17:55:36.157Z,98102.75
2022-08-23T17:58:04.344Z,98098.63
2022-08-23T18:00:33.473Z,98100.91
2022-08-23T18:03:00.747Z,98098.38
2022-08-23T18:05:29.799Z,98106.78
2022-08-23T18:07:56.277Z,98106.53
2022-08-23T18:10:23.348Z,98089.81
2022-08-23T18:12:49.810Z,98123.72
2022-08-23T18:15:16.728Z,98116.81
2022-08-23T18:17:43.152Z,98112.41
2022-08-23T18:20:11.396Z,98119.34
2022-08-23T18:22:39.073Z,98124.09
2022-08-23T18:25:09.358Z,98133.28
2022-08-23T18:27:54.291Z,98131.91
2022-08-23T18:30:21.403Z,98131.50
2022-08-23T18:32:47.839Z,98137.63
2022-08-23T18:35:14.979Z,98138.25
2022-08-23T18:37:42.109Z,98140.25
2022-08-23T18:40:10.329Z,98137.81
2022-08-23T18:42:37.588Z,98143.81
2022-08-23T18:45:05.743Z,98148.16
2022-08-23T18:47:32.817Z,98156.81
2022-08-23T18:49:59.320Z,98151.22
2022-08-23T18:52:27.498Z,98153.28
2022-08-23T18:54:57.520Z,98154.22
2022-08-23T18:57:24.257Z,98160.78
2022-08-23T18:59:51.285Z,98164.13
2022-08-23T19:02:17.789Z,98164.88
2022-08-23T19:04:44.341Z,98171.09
2022-08-23T19:07:10.865Z,98175.88
2022-08-23T19:09:37.909Z,98175.69
2022-08-23T19:12:06.413Z,98185.13
2022-08-23T19:14:35.461Z,98181.13
2022-08-23T19:17:03.678Z,98186.84
2022-08-23T19:19:30.353Z,98181.94
2022-08-23T19:21:58.141Z,98184.41
2022-08-23T19:24:25.180Z,98188.13
2022-08-23T19:26:52.480Z,98189.56
2022-08-23T19:29:21.102Z,98192.97
2022-08-23T19:31:50.262Z,98188.13
2022-08-23T19:34:20.788Z,98196.06
2022-08-23T19:36:53.596Z,98191.34
2022-08-23T19:39:27.334Z,98195.75
2022-08-23T19:41:54.195Z,98203.63
2022-08-23T19:44:21.236Z,98211.41
2022-08-23T19:46:48.334Z,98207.28
2022-08-23T19:49:14.931Z,98178.50
2022-08-23T19:51:42.924Z,98213.75
2022-08-23T19:54:13.161Z,98212.88
2022-08-23T19:56:53.024Z,98218.41
2022-08-23T19:59:23.727Z,98208.16
2022-08-23T20:01:52.811Z,98218.63
2022-08-23T20:04:21.540Z,98212.97
2022-08-23T20:06:48.741Z,98221.47
2022-08-23T20:09:15.867Z,98216.44
2022-08-23T20:11:42.544Z,98230.59
2022-08-23T20:14:09.965Z,98217.22
2022-08-23T20:16:37.811Z,98223.84
2022-08-23T20:19:08.834Z,98218.78
2022-08-23T20:21:35.877Z,98217.69
2022-08-23T20:24:03.555Z,98227.13
2022-08-23T20:26:40.683Z,98224.00
2022-08-23T20:29:10.175Z,98223.22
2022-08-23T20:31:45.931Z,98202.66
2022-08-23T20:34:12.475Z,98225.78
2022-08-23T20:36:38.952Z,98227.00
2022-08-23T20:39:05.815Z,98226.56
2022-08-23T20:41:36.954Z,98229.66
2022-08-23T20:44:05.929Z,98227.91
2022-08-23T20:46:32.430Z,98229.25
2022-08-23T20:48:58.973Z,98230.78
2022-08-23T20:51:27.925Z,98225.34
2022-08-23T20:53:55.842Z,98233.28
2022-08-23T20:56:23.367Z,98236.44
2022-08-23T20:58:50.346Z,98230.50
2022-08-23T21:01:17.148Z,98243.94
2022-08-23T21:03:43.973Z,98231.97
2022-08-23T21:06:22.130Z,98242.38
2022-08-23T21:08:53.534Z,98232.75
2022-08-23T21:11:22.094Z,98239.78
2022-08-23T21:13:48.815Z,98238.41
2022-08-23T21:16:16.676Z,98235.75
2022-08-23T21:18:43.895Z,98240.44
2022-08-23T21:21:10.811Z,98233.81
2022-08-23T21:23:38.072Z,98240.13
2022-08-23T21:26:06.301Z,98239.84
2022-08-23T21:28:33.454Z,98239.97
2022-08-23T21:31:10.281Z,98236.97
2022-08-23T21:33:40.133Z,98241.44
2022-08-23T21:36:07.638Z,98242.66
2022-08-23T21:38:34.917Z,98250.25
2022-08-23T21:41:05.120Z,98245.28
2022-08-23T21:43:32.612Z,98248.00
2022-08-23T21:45:59.170Z,98237.22
2022-08-23T21:48:25.702Z,98247.78
2022-08-23T21:50:52.432Z,98229.78
2022-08-23T21:53:19.860Z,98242.91
2022-08-23T21:55:46.432Z,98241.78
2022-08-23T21:58:13.442Z,98246.94
2022-08-23T22:00:41.182Z,98241.56
2022-08-23T22:03:09.081Z,98245.13
2022-08-23T22:05:41.130Z,98234.84
2022-08-23T22:08:08.017Z,98231.06
2022-08-23T22:10:37.200Z,98236.31
2022-08-23T22:13:05.100Z,98234.03
2022-08-23T22:15:32.604Z,98240.59
2022-08-23T22:18:03.196Z,98239.59
2022-08-23T22:20:31.471Z,98236.16
2022-08-23T22:22:58.737Z,98246.44
2022-08-23T22:25:25.504Z,98230.72
2022-08-23T22:27:52.892Z,98222.84
2022-08-23T22:30:20.072Z,98238.78
2022-08-23T22:32:46.607Z,98226.69
2022-08-23T22:35:13.738Z,98240.97
2022-08-23T22:38:03.579Z,98235.88
2022-08-23T22:40:30.207Z,98241.25
2022-08-23T22:42:56.635Z,98242.09
2022-08-23T22:45:23.952Z,98236.75
2022-08-23T22:47:50.472Z,98240.09
2022-08-23T22:50:16.981Z,98238.41
2022-08-23T22:52:43.560Z,98237.00
2022-08-23T22:55:10.141Z,98237.84
2022-08-23T22:57:38.753Z,98241.91
2022-08-23T23:00:07.094Z,98240.53
2022-08-23T23:02:37.378Z,98231.63
2022-08-23T23:05:04.159Z,98232.41
2022-08-23T23:07:49.297Z,98241.66
2022-08-23T23:10:15.806Z,98242.16
2022-08-23T23:12:42.361Z,98236.22
2022-08-23T23:15:09.480Z,98239.72
2022-08-23T23:17:35.979Z,98245.13
2022-08-23T23:20:22.023Z,98221.47
2022-08-23T23:22:48.495Z,98241.16
2022-08-23T23:25:14.916Z,98247.72
2022-08-23T23:27:41.322Z,98234.28
2022-08-23T23:30:09.824Z,98225.63
2022-08-23T23:32:36.246Z,98243.72
2022-08-23T23:35:02.855Z,98234.47
2022-08-23T23:37:30.199Z,98237.72
2022-08-23T23:39:56.966Z,98239.88
2022-08-23T23:42:23.510Z,98230.00
2022-08-23T23:44:50.108Z,98248.38
2022-08-23T23:47:17.720Z,98239.78
2022-08-23T23:49:44.690Z,98241.16
2022-08-23T23:52:11.219Z,98248.44
2022-08-23T23:54:38.412Z,98238.69
2022-08-23T23:57:06.023Z,98245.16
2022-08-23T23:59:33.902Z,98190.16
